sensor_id;sensor_type;location;lat;lon;timestamp;temperature;humidity
31747;DHT22;18319;48.974;8.462;2022-08-06T00:00:14;20.50;28.50
31747;DHT22;18319;48.974;8.462;2022-08-06T00:02:41;20.50;28.60
31747;DHT22;18319;48.974;8.462;2022-08-06T00:05:08;20.50;28.90
31747;DHT22;18319;48.974;8.462;2022-08-06T00:07:36;20.40;28.30
31747;DHT22;18319;48.974;8.462;2022-08-06T00:10:04;20.40;28.50
31747;DHT22;18319;48.974;8.462;2022-08-06T00:12:33;20.40;28.40
31747;DHT22;18319;48.974;8.462;2022-08-06T00:15:01;20.30;28.10
31747;DHT22;18319;48.974;8.462;2022-08-06T00:17:28;20.30;28.20
31747;DHT22;18319;48.974;8.462;2022-08-06T00:19:55;20.30;27.90
31747;DHT22;18319;48.974;8.462;2022-08-06T00:22:24;20.20;28.00
31747;DHT22;18319;48.974;8.462;2022-08-06T00:24:52;20.20;28.00
31747;DHT22;18319;48.974;8.462;2022-08-06T00:27:19;20.20;27.70
31747;DHT22;18319;48.974;8.462;2022-08-06T00:29:45;20.10;28.00
31747;DHT22;18319;48.974;8.462;2022-08-06T00:32:12;20.10;27.70
31747;DHT22;18319;48.974;8.462;2022-08-06T00:34:39;20.10;27.30
31747;DHT22;18319;48.974;8.462;2022-08-06T00:37:06;20.10;27.50
31747;DHT22;18319;48.974;8.462;2022-08-06T00:39:33;20.00;27.30
31747;DHT22;18319;48.974;8.462;2022-08-06T00:42:01;20.00;27.30
31747;DHT22;18319;48.974;8.462;2022-08-06T00:44:28;20.00;27.30
31747;DHT22;18319;48.974;8.462;2022-08-06T00:46:55;20.00;27.30
31747;DHT22;18319;48.974;8.462;2022-08-06T00:49:22;19.90;27.70
31747;DHT22;18319;48.974;8.462;2022-08-06T00:51:50;19.90;27.20
31747;DHT22;18319;48.974;8.462;2022-08-06T00:54:18;19.90;27.30
31747;DHT22;18319;48.974;8.462;2022-08-06T00:56:45;19.90;27.20
31747;DHT22;18319;48.974;8.462;2022-08-06T00:59:13;19.90;27.40
31747;DHT22;18319;48.974;8.462;2022-08-06T01:01:40;19.90;27.40
31747;DHT22;18319;48.974;8.462;2022-08-06T01:04:07;19.90;27.50
31747;DHT22;18319;48.974;8.462;2022-08-06T01:06:33;19.90;28.10
31747;DHT22;18319;48.974;8.462;2022-08-06T01:09:00;19.90;28.40
31747;DHT22;18319;48.974;8.462;2022-08-06T01:11:27;19.90;28.00
31747;DHT22;18319;48.974;8.462;2022-08-06T01:13:54;19.90;28.30
31747;DHT22;18319;48.974;8.462;2022-08-06T01:16:27;19.90;28.50
31747;DHT22;18319;48.974;8.462;2022-08-06T01:18:59;19.90;28.70
31747;DHT22;18319;48.974;8.462;2022-08-06T01:21:51;19.80;28.80
31747;DHT22;18319;48.974;8.462;2022-08-06T01:24:51;19.80;29.00
31747;DHT22;18319;48.974;8.462;2022-08-06T01:27:36;19.80;29.20
31747;DHT22;18319;48.974;8.462;2022-08-06T01:30:07;19.80;29.10
31747;DHT22;18319;48.974;8.462;2022-08-06T01:32:38;19.80;29.20
31747;DHT22;18319;48.974;8.462;2022-08-06T01:35:10;19.80;29.50
31747;DHT22;18319;48.974;8.462;2022-08-06T01:37:42;19.80;29.10
31747;DHT22;18319;48.974;8.462;2022-08-06T01:40:16;19.70;28.70
31747;DHT22;18319;48.974;8.462;2022-08-06T01:42:46;19.60;29.00
31747;DHT22;18319;48.974;8.462;2022-08-06T01:45:17;19.60;29.10
31747;DHT22;18319;48.974;8.462;2022-08-06T01:47:51;19.60;29.00
31747;DHT22;18319;48.974;8.462;2022-08-06T01:50:21;19.60;29.30
31747;DHT22;18319;48.974;8.462;2022-08-06T01:52:50;19.60;29.40
31747;DHT22;18319;48.974;8.462;2022-08-06T01:55:18;19.60;29.50
31747;DHT22;18319;48.974;8.462;2022-08-06T01:57:50;19.50;29.20
31747;DHT22;18319;48.974;8.462;2022-08-06T02:00:19;19.50;29.30
31747;DHT22;18319;48.974;8.462;2022-08-06T02:02:47;19.50;29.30
31747;DHT22;18319;48.974;8.462;2022-08-06T02:05:17;19.40;29.30
31747;DHT22;18319;48.974;8.462;2022-08-06T02:07:50;19.40;29.50
31747;DHT22;18319;48.974;8.462;2022-08-06T02:10:20;19.40;29.50
31747;DHT22;18319;48.974;8.462;2022-08-06T02:12:50;19.30;29.50
31747;DHT22;18319;48.974;8.462;2022-08-06T02:15:20;19.20;29.60
31747;DHT22;18319;48.974;8.462;2022-08-06T02:17:52;19.20;29.90
31747;DHT22;18319;48.974;8.462;2022-08-06T02:20:23;19.20;30.00
31747;DHT22;18319;48.974;8.462;2022-08-06T02:22:52;19.10;30.20
31747;DHT22;18319;48.974;8.462;2022-08-06T02:25:21;19.00;30.30
31747;DHT22;18319;48.974;8.462;2022-08-06T02:27:52;19.00;30.50
31747;DHT22;18319;48.974;8.462;2022-08-06T02:30:19;18.90;30.60
31747;DHT22;18319;48.974;8.462;2022-08-06T02:32:47;18.80;31.00
31747;DHT22;18319;48.974;8.462;2022-08-06T02:35:14;18.70;31.30
31747;DHT22;18319;48.974;8.462;2022-08-06T02:37:45;18.60;31.60
31747;DHT22;18319;48.974;8.462;2022-08-06T02:40:17;18.40;32.10
31747;DHT22;18319;48.974;8.462;2022-08-06T02:42:53;18.30;32.00
31747;DHT22;18319;48.974;8.462;2022-08-06T02:45:27;18.20;32.10
31747;DHT22;18319;48.974;8.462;2022-08-06T02:48:00;18.20;32.60
31747;DHT22;18319;48.974;8.462;2022-08-06T02:50:31;18.10;32.80
31747;DHT22;18319;48.974;8.462;2022-08-06T02:53:11;18.00;33.00
31747;DHT22;18319;48.974;8.462;2022-08-06T02:55:43;18.00;33.00
31747;DHT22;18319;48.974;8.462;2022-08-06T02:58:17;17.90;33.10
31747;DHT22;18319;48.974;8.462;2022-08-06T03:00:47;17.90;33.80
31747;DHT22;18319;48.974;8.462;2022-08-06T03:03:15;17.80;33.70
31747;DHT22;18319;48.974;8.462;2022-08-06T03:05:44;17.80;34.20
31747;DHT22;18319;48.974;8.462;2022-08-06T03:08:15;17.70;34.30
31747;DHT22;18319;48.974;8.462;2022-08-06T03:10:43;17.60;34.40
31747;DHT22;18319;48.974;8.462;2022-08-06T03:13:12;17.60;34.80
31747;DHT22;18319;48.974;8.462;2022-08-06T03:15:40;17.50;35.20
31747;DHT22;18319;48.974;8.462;2022-08-06T03:18:09;17.50;35.50
31747;DHT22;18319;48.974;8.462;2022-08-06T03:20:39;17.40;35.60
31747;DHT22;18319;48.974;8.462;2022-08-06T03:23:07;17.40;36.10
31747;DHT22;18319;48.974;8.462;2022-08-06T03:25:37;17.40;36.20
31747;DHT22;18319;48.974;8.462;2022-08-06T03:28:05;17.30;36.50
31747;DHT22;18319;48.974;8.462;2022-08-06T03:30:34;17.30;37.10
31747;DHT22;18319;48.974;8.462;2022-08-06T03:33:03;17.30;37.20
31747;DHT22;18319;48.974;8.462;2022-08-06T03:35:33;17.20;37.20
31747;DHT22;18319;48.974;8.462;2022-08-06T03:38:00;17.30;38.00
31747;DHT22;18319;48.974;8.462;2022-08-06T03:40:29;17.30;37.50
31747;DHT22;18319;48.974;8.462;2022-08-06T03:42:58;17.40;37.60
31747;DHT22;18319;48.974;8.462;2022-08-06T03:45:26;17.40;37.60
31747;DHT22;18319;48.974;8.462;2022-08-06T03:47:56;17.40;37.60
31747;DHT22;18319;48.974;8.462;2022-08-06T03:50:28;17.50;37.70
31747;DHT22;18319;48.974;8.462;2022-08-06T03:53:00;17.50;37.90
31747;DHT22;18319;48.974;8.462;2022-08-06T03:55:30;17.50;37.90
31747;DHT22;18319;48.974;8.462;2022-08-06T03:58:01;17.60;38.70
31747;DHT22;18319;48.974;8.462;2022-08-06T04:00:32;17.70;37.80
31747;DHT22;18319;48.974;8.462;2022-08-06T04:03:02;17.70;37.80
31747;DHT22;18319;48.974;8.462;2022-08-06T04:05:31;17.80;37.70
31747;DHT22;18319;48.974;8.462;2022-08-06T04:08:02;17.80;37.80
31747;DHT22;18319;48.974;8.462;2022-08-06T04:10:32;17.80;37.80
31747;DHT22;18319;48.974;8.462;2022-08-06T04:13:02;17.80;38.20
31747;DHT22;18319;48.974;8.462;2022-08-06T04:15:29;17.70;37.60
31747;DHT22;18319;48.974;8.462;2022-08-06T04:17:56;17.70;37.80
31747;DHT22;18319;48.974;8.462;2022-08-06T04:20:26;17.70;37.90
31747;DHT22;18319;48.974;8.462;2022-08-06T04:22:54;17.60;38.30
31747;DHT22;18319;48.974;8.462;2022-08-06T04:25:22;17.60;38.50
31747;DHT22;18319;48.974;8.462;2022-08-06T04:27:52;17.60;38.70
31747;DHT22;18319;48.974;8.462;2022-08-06T04:30:20;17.50;38.80
31747;DHT22;18319;48.974;8.462;2022-08-06T04:32:48;17.50;39.20
31747;DHT22;18319;48.974;8.462;2022-08-06T04:35:15;17.40;39.30
31747;DHT22;18319;48.974;8.462;2022-08-06T04:37:44;17.40;39.50
31747;DHT22;18319;48.974;8.462;2022-08-06T04:40:12;17.40;39.60
31747;DHT22;18319;48.974;8.462;2022-08-06T04:42:46;17.40;39.50
31747;DHT22;18319;48.974;8.462;2022-08-06T04:45:13;17.40;39.60
31747;DHT22;18319;48.974;8.462;2022-08-06T04:47:43;17.40;39.70
31747;DHT22;18319;48.974;8.462;2022-08-06T04:50:10;17.30;40.00
31747;DHT22;18319;48.974;8.462;2022-08-06T04:52:37;17.30;39.90
31747;DHT22;18319;48.974;8.462;2022-08-06T04:55:07;17.30;39.80
31747;DHT22;18319;48.974;8.462;2022-08-06T04:57:34;17.30;40.40
31747;DHT22;18319;48.974;8.462;2022-08-06T05:00:01;17.30;39.80
31747;DHT22;18319;48.974;8.462;2022-08-06T05:02:28;17.30;39.70
31747;DHT22;18319;48.974;8.462;2022-08-06T05:04:55;17.30;39.40
31747;DHT22;18319;48.974;8.462;2022-08-06T05:07:25;17.30;39.80
31747;DHT22;18319;48.974;8.462;2022-08-06T05:09:54;17.30;39.50
31747;DHT22;18319;48.974;8.462;2022-08-06T05:12:31;17.30;39.50
31747;DHT22;18319;48.974;8.462;2022-08-06T05:15:01;17.30;39.60
31747;DHT22;18319;48.974;8.462;2022-08-06T05:17:32;17.20;39.70
31747;DHT22;18319;48.974;8.462;2022-08-06T05:20:02;17.20;40.20
31747;DHT22;18319;48.974;8.462;2022-08-06T05:22:32;17.20;40.90
31747;DHT22;18319;48.974;8.462;2022-08-06T05:24:59;17.20;40.90
31747;DHT22;18319;48.974;8.462;2022-08-06T05:27:28;17.00;40.80
31747;DHT22;18319;48.974;8.462;2022-08-06T05:29:55;17.10;41.30
31747;DHT22;18319;48.974;8.462;2022-08-06T05:32:22;17.00;41.00
31747;DHT22;18319;48.974;8.462;2022-08-06T05:34:49;17.00;40.90
31747;DHT22;18319;48.974;8.462;2022-08-06T05:37:16;17.00;40.90
31747;DHT22;18319;48.974;8.462;2022-08-06T05:39:43;17.00;41.00
31747;DHT22;18319;48.974;8.462;2022-08-06T05:42:10;17.10;40.70
31747;DHT22;18319;48.974;8.462;2022-08-06T05:44:38;17.20;40.60
31747;DHT22;18319;48.974;8.462;2022-08-06T05:47:15;17.20;40.40
31747;DHT22;18319;48.974;8.462;2022-08-06T05:49:48;17.20;40.30
31747;DHT22;18319;48.974;8.462;2022-08-06T05:52:19;17.30;40.50
31747;DHT22;18319;48.974;8.462;2022-08-06T05:54:48;17.30;40.30
31747;DHT22;18319;48.974;8.462;2022-08-06T05:57:19;17.30;39.80
31747;DHT22;18319;48.974;8.462;2022-08-06T05:59:53;17.40;39.70
31747;DHT22;18319;48.974;8.462;2022-08-06T06:02:22;17.40;39.70
31747;DHT22;18319;48.974;8.462;2022-08-06T06:04:50;17.40;39.10
31747;DHT22;18319;48.974;8.462;2022-08-06T06:07:17;17.50;39.60
31747;DHT22;18319;48.974;8.462;2022-08-06T06:09:45;17.50;38.90
31747;DHT22;18319;48.974;8.462;2022-08-06T06:12:12;17.60;39.30
31747;DHT22;18319;48.974;8.462;2022-08-06T06:14:42;17.70;38.40
31747;DHT22;18319;48.974;8.462;2022-08-06T06:17:37;17.80;38.70
31747;DHT22;18319;48.974;8.462;2022-08-06T06:20:12;17.80;38.20
31747;DHT22;18319;48.974;8.462;2022-08-06T06:22:49;17.80;39.00
31747;DHT22;18319;48.974;8.462;2022-08-06T06:25:22;17.90;38.50
31747;DHT22;18319;48.974;8.462;2022-08-06T06:27:56;17.90;38.20
31747;DHT22;18319;48.974;8.462;2022-08-06T06:30:30;17.90;37.80
31747;DHT22;18319;48.974;8.462;2022-08-06T06:33:04;17.90;37.80
31747;DHT22;18319;48.974;8.462;2022-08-06T06:35:41;18.00;38.00
31747;DHT22;18319;48.974;8.462;2022-08-06T06:38:20;18.00;37.80
31747;DHT22;18319;48.974;8.462;2022-08-06T06:40:55;18.10;38.20
31747;DHT22;18319;48.974;8.462;2022-08-06T06:43:40;18.10;38.40
31747;DHT22;18319;48.974;8.462;2022-08-06T06:46:15;18.10;37.50
31747;DHT22;18319;48.974;8.462;2022-08-06T06:48:46;18.20;37.60
31747;DHT22;18319;48.974;8.462;2022-08-06T06:51:19;18.20;37.00
31747;DHT22;18319;48.974;8.462;2022-08-06T06:53:49;18.30;37.20
31747;DHT22;18319;48.974;8.462;2022-08-06T06:56:20;18.30;37.40
31747;DHT22;18319;48.974;8.462;2022-08-06T06:58:50;18.40;37.20
31747;DHT22;18319;48.974;8.462;2022-08-06T07:01:19;18.40;36.80
31747;DHT22;18319;48.974;8.462;2022-08-06T07:03:49;18.50;36.90
31747;DHT22;18319;48.974;8.462;2022-08-06T07:06:17;18.60;37.40
31747;DHT22;18319;48.974;8.462;2022-08-06T07:08:46;18.60;36.50
31747;DHT22;18319;48.974;8.462;2022-08-06T07:11:19;18.70;36.80
31747;DHT22;18319;48.974;8.462;2022-08-06T07:13:50;18.70;36.20
31747;DHT22;18319;48.974;8.462;2022-08-06T07:16:20;18.70;36.00
31747;DHT22;18319;48.974;8.462;2022-08-06T07:18:50;18.80;36.00
31747;DHT22;18319;48.974;8.462;2022-08-06T07:21:19;18.90;36.00
31747;DHT22;18319;48.974;8.462;2022-08-06T07:23:49;18.90;35.00
31747;DHT22;18319;48.974;8.462;2022-08-06T07:26:17;19.00;35.40
31747;DHT22;18319;48.974;8.462;2022-08-06T07:28:45;19.20;34.90
31747;DHT22;18319;48.974;8.462;2022-08-06T07:31:13;19.40;34.50
31747;DHT22;18319;48.974;8.462;2022-08-06T07:33:41;19.60;34.60
31747;DHT22;18319;48.974;8.462;2022-08-06T07:36:13;19.70;32.80
31747;DHT22;18319;48.974;8.462;2022-08-06T07:38:44;19.80;32.20
31747;DHT22;18319;48.974;8.462;2022-08-06T07:41:13;19.90;31.60
31747;DHT22;18319;48.974;8.462;2022-08-06T07:43:46;20.00;31.40
31747;DHT22;18319;48.974;8.462;2022-08-06T07:46:17;20.30;31.20
31747;DHT22;18319;48.974;8.462;2022-08-06T07:48:49;20.50;29.70
31747;DHT22;18319;48.974;8.462;2022-08-06T07:51:18;20.90;28.90
31747;DHT22;18319;48.974;8.462;2022-08-06T07:53:48;21.30;27.40
31747;DHT22;18319;48.974;8.462;2022-08-06T07:56:17;21.60;25.70
31747;DHT22;18319;48.974;8.462;2022-08-06T07:58:44;22.20;24.70
31747;DHT22;18319;48.974;8.462;2022-08-06T08:01:13;23.20;23.10
31747;DHT22;18319;48.974;8.462;2022-08-06T08:03:41;24.00;21.40
31747;DHT22;18319;48.974;8.462;2022-08-06T08:06:27;24.40;19.50
31747;DHT22;18319;48.974;8.462;2022-08-06T08:08:57;24.50;19.40
31747;DHT22;18319;48.974;8.462;2022-08-06T08:11:25;24.90;18.90
31747;DHT22;18319;48.974;8.462;2022-08-06T08:13:54;25.70;18.40
31747;DHT22;18319;48.974;8.462;2022-08-06T08:16:24;26.40;17.70
31747;DHT22;18319;48.974;8.462;2022-08-06T08:18:53;26.90;14.50
31747;DHT22;18319;48.974;8.462;2022-08-06T08:21:21;27.50;14.60
31747;DHT22;18319;48.974;8.462;2022-08-06T08:23:50;28.10;13.20
31747;DHT22;18319;48.974;8.462;2022-08-06T08:26:17;28.40;12.30
31747;DHT22;18319;48.974;8.462;2022-08-06T08:28:44;28.60;11.40
31747;DHT22;18319;48.974;8.462;2022-08-06T08:31:11;28.40;11.60
31747;DHT22;18319;48.974;8.462;2022-08-06T08:33:39;28.40;11.10
31747;DHT22;18319;48.974;8.462;2022-08-06T08:36:09;28.30;12.40
31747;DHT22;18319;48.974;8.462;2022-08-06T08:38:36;28.60;12.20
31747;DHT22;18319;48.974;8.462;2022-08-06T08:41:10;29.00;11.10
31747;DHT22;18319;48.974;8.462;2022-08-06T08:43:43;29.00;10.60
31747;DHT22;18319;48.974;8.462;2022-08-06T08:46:12;28.90;10.00
31747;DHT22;18319;48.974;8.462;2022-08-06T08:48:40;28.90;11.30
31747;DHT22;18319;48.974;8.462;2022-08-06T08:51:08;28.90;9.90
31747;DHT22;18319;48.974;8.462;2022-08-06T08:53:37;28.60;8.90
31747;DHT22;18319;48.974;8.462;2022-08-06T08:56:07;28.70;10.40
31747;DHT22;18319;48.974;8.462;2022-08-06T08:58:35;29.00;11.40
31747;DHT22;18319;48.974;8.462;2022-08-06T09:01:07;29.30;11.30
31747;DHT22;18319;48.974;8.462;2022-08-06T09:03:35;29.30;9.70
31747;DHT22;18319;48.974;8.462;2022-08-06T09:06:03;29.50;9.20
31747;DHT22;18319;48.974;8.462;2022-08-06T09:08:31;29.70;8.90
31747;DHT22;18319;48.974;8.462;2022-08-06T09:10:58;29.90;8.80
31747;DHT22;18319;48.974;8.462;2022-08-06T09:13:27;29.90;9.20
31747;DHT22;18319;48.974;8.462;2022-08-06T09:15:54;29.80;9.30
31747;DHT22;18319;48.974;8.462;2022-08-06T09:18:22;29.40;8.30
31747;DHT22;18319;48.974;8.462;2022-08-06T09:20:50;28.90;10.60
31747;DHT22;18319;48.974;8.462;2022-08-06T09:23:18;28.50;10.70
31747;DHT22;18319;48.974;8.462;2022-08-06T09:25:46;28.10;10.50
31747;DHT22;18319;48.974;8.462;2022-08-06T09:28:31;27.90;10.30
31747;DHT22;18319;48.974;8.462;2022-08-06T09:31:01;27.90;10.90
31747;DHT22;18319;48.974;8.462;2022-08-06T09:33:30;27.80;10.50
31747;DHT22;18319;48.974;8.462;2022-08-06T09:35:58;27.70;10.90
31747;DHT22;18319;48.974;8.462;2022-08-06T09:38:26;27.80;10.60
31747;DHT22;18319;48.974;8.462;2022-08-06T09:41:08;27.90;10.60
31747;DHT22;18319;48.974;8.462;2022-08-06T09:43:38;27.80;9.50
31747;DHT22;18319;48.974;8.462;2022-08-06T09:46:06;27.70;10.10
31747;DHT22;18319;48.974;8.462;2022-08-06T09:48:56;27.80;10.90
31747;DHT22;18319;48.974;8.462;2022-08-06T09:51:24;27.80;10.80
31747;DHT22;18319;48.974;8.462;2022-08-06T09:53:52;27.90;10.70
31747;DHT22;18319;48.974;8.462;2022-08-06T09:56:19;27.80;10.00
31747;DHT22;18319;48.974;8.462;2022-08-06T09:58:48;27.60;10.20
31747;DHT22;18319;48.974;8.462;2022-08-06T10:01:17;27.50;10.90
31747;DHT22;18319;48.974;8.462;2022-08-06T10:03:44;27.60;10.70
31747;DHT22;18319;48.974;8.462;2022-08-06T10:06:13;27.60;10.80
31747;DHT22;18319;48.974;8.462;2022-08-06T10:08:41;27.50;10.20
31747;DHT22;18319;48.974;8.462;2022-08-06T10:11:09;27.10;11.10
31747;DHT22;18319;48.974;8.462;2022-08-06T10:13:36;27.10;12.20
31747;DHT22;18319;48.974;8.462;2022-08-06T10:16:17;27.10;11.00
31747;DHT22;18319;48.974;8.462;2022-08-06T10:18:45;26.50;10.30
31747;DHT22;18319;48.974;8.462;2022-08-06T10:21:14;26.30;11.50
31747;DHT22;18319;48.974;8.462;2022-08-06T10:23:45;26.00;11.70
31747;DHT22;18319;48.974;8.462;2022-08-06T10:26:21;25.60;12.70
31747;DHT22;18319;48.974;8.462;2022-08-06T10:28:49;25.40;13.00
31747;DHT22;18319;48.974;8.462;2022-08-06T10:31:19;25.30;13.20
31747;DHT22;18319;48.974;8.462;2022-08-06T10:33:50;25.20;13.50
31747;DHT22;18319;48.974;8.462;2022-08-06T10:36:20;25.40;13.10
31747;DHT22;18319;48.974;8.462;2022-08-06T10:38:50;25.40;12.20
31747;DHT22;18319;48.974;8.462;2022-08-06T10:41:20;25.50;13.30
31747;DHT22;18319;48.974;8.462;2022-08-06T10:43:48;25.40;12.50
31747;DHT22;18319;48.974;8.462;2022-08-06T10:46:16;25.30;12.50
31747;DHT22;18319;48.974;8.462;2022-08-06T10:48:45;25.30;13.30
31747;DHT22;18319;48.974;8.462;2022-08-06T10:51:14;25.10;12.90
31747;DHT22;18319;48.974;8.462;2022-08-06T10:53:44;25.00;13.40
31747;DHT22;18319;48.974;8.462;2022-08-06T10:56:12;24.80;13.00
31747;DHT22;18319;48.974;8.462;2022-08-06T10:58:40;24.70;13.30
31747;DHT22;18319;48.974;8.462;2022-08-06T11:01:10;24.60;13.90
31747;DHT22;18319;48.974;8.462;2022-08-06T11:04:05;24.40;14.30
31747;DHT22;18319;48.974;8.462;2022-08-06T11:07:00;24.20;14.00
31747;DHT22;18319;48.974;8.462;2022-08-06T11:09:53;24.20;14.40
31747;DHT22;18319;48.974;8.462;2022-08-06T11:12:35;24.10;14.30
31747;DHT22;18319;48.974;8.462;2022-08-06T11:15:07;24.10;14.00
31747;DHT22;18319;48.974;8.462;2022-08-06T11:17:53;24.20;15.60
31747;DHT22;18319;48.974;8.462;2022-08-06T11:20:38;24.30;13.90
31747;DHT22;18319;48.974;8.462;2022-08-06T11:23:37;24.30;13.90
31747;DHT22;18319;48.974;8.462;2022-08-06T11:26:06;24.30;13.20
31747;DHT22;18319;48.974;8.462;2022-08-06T11:28:58;24.30;13.50
31747;DHT22;18319;48.974;8.462;2022-08-06T11:31:31;24.50;14.70
31747;DHT22;18319;48.974;8.462;2022-08-06T11:34:00;24.60;15.10
31747;DHT22;18319;48.974;8.462;2022-08-06T11:36:44;24.70;13.90
31747;DHT22;18319;48.974;8.462;2022-08-06T11:39:11;24.70;13.20
31747;DHT22;18319;48.974;8.462;2022-08-06T11:41:54;24.50;13.30
31747;DHT22;18319;48.974;8.462;2022-08-06T11:44:22;24.30;13.60
31747;DHT22;18319;48.974;8.462;2022-08-06T11:47:06;24.10;14.40
31747;DHT22;18319;48.974;8.462;2022-08-06T11:49:39;24.10;14.90
31747;DHT22;18319;48.974;8.462;2022-08-06T11:52:08;24.10;13.30
31747;DHT22;18319;48.974;8.462;2022-08-06T11:54:36;23.90;13.10
31747;DHT22;18319;48.974;8.462;2022-08-06T11:57:24;23.80;14.20
31747;DHT22;18319;48.974;8.462;2022-08-06T12:00:18;23.70;13.80
31747;DHT22;18319;48.974;8.462;2022-08-06T12:02:56;23.80;14.60
31747;DHT22;18319;48.974;8.462;2022-08-06T12:05:42;24.00;15.00
31747;DHT22;18319;48.974;8.462;2022-08-06T12:08:25;24.10;13.60
31747;DHT22;18319;48.974;8.462;2022-08-06T12:11:21;24.10;13.90
31747;DHT22;18319;48.974;8.462;2022-08-06T12:13:49;24.10;13.60
31747;DHT22;18319;48.974;8.462;2022-08-06T12:16:33;24.10;13.70
31747;DHT22;18319;48.974;8.462;2022-08-06T12:19:05;24.20;13.90
31747;DHT22;18319;48.974;8.462;2022-08-06T12:21:33;24.10;13.20
31747;DHT22;18319;48.974;8.462;2022-08-06T12:24:02;24.10;13.80
31747;DHT22;18319;48.974;8.462;2022-08-06T12:26:30;24.10;13.20
31747;DHT22;18319;48.974;8.462;2022-08-06T12:29:03;24.00;13.40
31747;DHT22;18319;48.974;8.462;2022-08-06T12:31:32;24.00;13.20
31747;DHT22;18319;48.974;8.462;2022-08-06T12:34:00;23.90;13.40
31747;DHT22;18319;48.974;8.462;2022-08-06T12:36:28;23.90;13.20
31747;DHT22;18319;48.974;8.462;2022-08-06T12:38:57;23.90;13.60
31747;DHT22;18319;48.974;8.462;2022-08-06T12:41:37;24.00;14.20
31747;DHT22;18319;48.974;8.462;2022-08-06T12:44:07;24.10;14.00
31747;DHT22;18319;48.974;8.462;2022-08-06T12:46:34;24.20;13.40
31747;DHT22;18319;48.974;8.462;2022-08-06T12:49:01;24.10;12.60
31747;DHT22;18319;48.974;8.462;2022-08-06T12:51:28;24.10;13.30
31747;DHT22;18319;48.974;8.462;2022-08-06T12:54:01;24.10;13.30
31747;DHT22;18319;48.974;8.462;2022-08-06T12:56:36;24.10;12.70
31747;DHT22;18319;48.974;8.462;2022-08-06T12:59:08;24.10;12.30
31747;DHT22;18319;48.974;8.462;2022-08-06T13:01:36;24.10;13.30
31747;DHT22;18319;48.974;8.462;2022-08-06T13:04:07;24.20;13.60
31747;DHT22;18319;48.974;8.462;2022-08-06T13:06:36;24.30;13.40
31747;DHT22;18319;48.974;8.462;2022-08-06T13:09:04;24.30;13.50
31747;DHT22;18319;48.974;8.462;2022-08-06T13:11:33;24.40;13.20
31747;DHT22;18319;48.974;8.462;2022-08-06T13:14:12;24.40;12.60
31747;DHT22;18319;48.974;8.462;2022-08-06T13:16:41;24.50;12.30
31747;DHT22;18319;48.974;8.462;2022-08-06T13:19:09;24.50;11.90
31747;DHT22;18319;48.974;8.462;2022-08-06T13:21:37;24.50;12.40
31747;DHT22;18319;48.974;8.462;2022-08-06T13:24:05;24.50;12.00
31747;DHT22;18319;48.974;8.462;2022-08-06T13:26:47;24.40;12.00
31747;DHT22;18319;48.974;8.462;2022-08-06T13:29:16;24.30;12.00
31747;DHT22;18319;48.974;8.462;2022-08-06T13:31:45;24.30;12.00
31747;DHT22;18319;48.974;8.462;2022-08-06T13:34:14;24.30;11.90
31747;DHT22;18319;48.974;8.462;2022-08-06T13:36:44;24.30;13.10
31747;DHT22;18319;48.974;8.462;2022-08-06T13:39:19;24.40;12.70
31747;DHT22;18319;48.974;8.462;2022-08-06T13:41:59;24.40;12.10
31747;DHT22;18319;48.974;8.462;2022-08-06T13:44:27;24.40;11.40
31747;DHT22;18319;48.974;8.462;2022-08-06T13:46:54;24.30;11.20
31747;DHT22;18319;48.974;8.462;2022-08-06T13:49:21;24.30;11.20
31747;DHT22;18319;48.974;8.462;2022-08-06T13:51:48;24.30;12.20
31747;DHT22;18319;48.974;8.462;2022-08-06T13:54:15;24.30;11.50
31747;DHT22;18319;48.974;8.462;2022-08-06T13:56:42;24.30;12.00
31747;DHT22;18319;48.974;8.462;2022-08-06T13:59:10;24.30;12.20
31747;DHT22;18319;48.974;8.462;2022-08-06T14:01:37;24.40;12.20
31747;DHT22;18319;48.974;8.462;2022-08-06T14:04:04;24.40;12.20
31747;DHT22;18319;48.974;8.462;2022-08-06T14:06:31;24.50;12.20
31747;DHT22;18319;48.974;8.462;2022-08-06T14:08:58;24.60;12.30
31747;DHT22;18319;48.974;8.462;2022-08-06T14:11:25;24.50;11.70
31747;DHT22;18319;48.974;8.462;2022-08-06T14:13:52;24.50;11.90
31747;DHT22;18319;48.974;8.462;2022-08-06T14:16:20;24.50;12.60
31747;DHT22;18319;48.974;8.462;2022-08-06T14:18:47;24.50;11.90
31747;DHT22;18319;48.974;8.462;2022-08-06T14:21:14;24.50;11.70
31747;DHT22;18319;48.974;8.462;2022-08-06T14:23:41;24.50;11.80
31747;DHT22;18319;48.974;8.462;2022-08-06T14:26:08;24.50;12.30
31747;DHT22;18319;48.974;8.462;2022-08-06T14:28:35;24.50;11.00
31747;DHT22;18319;48.974;8.462;2022-08-06T14:31:02;24.40;11.60
31747;DHT22;18319;48.974;8.462;2022-08-06T14:33:30;24.50;11.40
31747;DHT22;18319;48.974;8.462;2022-08-06T14:35:57;24.60;11.60
31747;DHT22;18319;48.974;8.462;2022-08-06T14:38:24;24.60;11.40
31747;DHT22;18319;48.974;8.462;2022-08-06T14:40:51;24.70;11.40
31747;DHT22;18319;48.974;8.462;2022-08-06T14:43:44;24.70;11.40
31747;DHT22;18319;48.974;8.462;2022-08-06T14:46:28;24.70;10.80
31747;DHT22;18319;48.974;8.462;2022-08-06T14:48:57;24.60;11.10
31747;DHT22;18319;48.974;8.462;2022-08-06T14:51:25;24.70;11.70
31747;DHT22;18319;48.974;8.462;2022-08-06T14:53:53;24.60;10.40
31747;DHT22;18319;48.974;8.462;2022-08-06T14:56:20;24.60;10.00
31747;DHT22;18319;48.974;8.462;2022-08-06T14:58:49;24.60;10.20
31747;DHT22;18319;48.974;8.462;2022-08-06T15:01:16;24.50;10.20
31747;DHT22;18319;48.974;8.462;2022-08-06T15:03:43;24.70;11.60
31747;DHT22;18319;48.974;8.462;2022-08-06T15:06:11;24.70;11.10
31747;DHT22;18319;48.974;8.462;2022-08-06T15:08:38;24.70;10.40
31747;DHT22;18319;48.974;8.462;2022-08-06T15:11:05;24.70;11.00
31747;DHT22;18319;48.974;8.462;2022-08-06T15:13:32;24.70;10.00
31747;DHT22;18319;48.974;8.462;2022-08-06T15:15:59;24.50;10.40
31747;DHT22;18319;48.974;8.462;2022-08-06T15:18:26;24.60;10.60
31747;DHT22;18319;48.974;8.462;2022-08-06T15:20:52;24.60;10.90
31747;DHT22;18319;48.974;8.462;2022-08-06T15:23:21;24.60;10.50
31747;DHT22;18319;48.974;8.462;2022-08-06T15:25:48;24.60;10.30
31747;DHT22;18319;48.974;8.462;2022-08-06T15:28:15;24.60;9.30
31747;DHT22;18319;48.974;8.462;2022-08-06T15:30:43;24.60;11.40
31747;DHT22;18319;48.974;8.462;2022-08-06T15:33:10;24.70;10.70
31747;DHT22;18319;48.974;8.462;2022-08-06T15:35:36;24.70;10.00
31747;DHT22;18319;48.974;8.462;2022-08-06T15:38:03;24.70;9.90
31747;DHT22;18319;48.974;8.462;2022-08-06T15:40:32;24.70;9.90
31747;DHT22;18319;48.974;8.462;2022-08-06T15:42:59;24.70;9.70
31747;DHT22;18319;48.974;8.462;2022-08-06T15:45:26;24.60;9.90
31747;DHT22;18319;48.974;8.462;2022-08-06T15:47:53;24.60;10.00
31747;DHT22;18319;48.974;8.462;2022-08-06T15:50:24;24.50;9.30
31747;DHT22;18319;48.974;8.462;2022-08-06T15:52:52;24.50;10.20